createdAt,value
2022-08-20T00:00:57.775Z,3.77
2022-08-20T00:03:37.084Z,3.40
2022-08-20T00:06:15.793Z,4.43
2022-08-20T00:08:43.356Z,6.40
2022-08-20T00:11:12.838Z,4.50
2022-08-20T00:13:43.764Z,6.13
2022-08-20T00:16:11.474Z,5.77
2022-08-20T00:18:38.979Z,8.70
2022-08-20T00:21:09.070Z,8.63
2022-08-20T00:23:40.501Z,4.40
2022-08-20T00:26:07.883Z,4.10
2022-08-20T00:28:35.082Z,5.87
2022-08-20T00:31:04.819Z,5.10
2022-08-20T00:33:31.414Z,5.63
2022-08-20T00:35:57.891Z,5.90
2022-08-20T00:38:25.964Z,4.60
2022-08-20T00:40:59.230Z,3.83
2022-08-20T00:43:41.623Z,3.73
2022-08-20T00:46:12.141Z,5.47
2022-08-20T00:48:42.302Z,3.83
2022-08-20T00:51:15.191Z,5.03
2022-08-20T00:53:42.760Z,3.80
2022-08-20T00:56:11.038Z,5.47
2022-08-20T00:58:39.927Z,4.27
2022-08-20T01:01:08.105Z,4.87
2022-08-20T01:03:34.892Z,3.47
2022-08-20T01:06:01.571Z,4.77
2022-08-20T01:08:28.018Z,5.13
2022-08-20T01:11:15.318Z,3.70
2022-08-20T01:13:43.585Z,4.47
2022-08-20T01:16:26.567Z,4.43
2022-08-20T01:18:57.623Z,4.90
2022-08-20T01:21:31.517Z,5.07
2022-08-20T01:24:21.065Z,4.20
2022-08-20T01:26:49.200Z,4.33
2022-08-20T01:29:20.506Z,4.30
2022-08-20T01:31:47.665Z,5.30
2022-08-20T01:34:17.607Z,4.87
2022-08-20T01:36:51.945Z,7.63
2022-08-20T01:39:26.633Z,6.70
2022-08-20T01:42:16.088Z,7.10
2022-08-20T01:44:44.840Z,5.43
2022-08-20T01:47:19.775Z,6.60
2022-08-20T01:49:51.317Z,7.27
2022-08-20T01:52:36.803Z,4.80
2022-08-20T01:55:04.811Z,5.60
2022-08-20T01:57:31.568Z,5.13
2022-08-20T01:59:58.104Z,5.90
2022-08-20T02:02:28.118Z,5.80
2022-08-20T02:04:55.063Z,5.43
2022-08-20T02:07:24.973Z,4.93
2022-08-20T02:09:51.396Z,4.00
2022-08-20T02:12:18.709Z,3.90
2022-08-20T02:15:19.901Z,5.33
2022-08-20T02:18:05.437Z,5.07
2022-08-20T02:20:35.955Z,4.23
2022-08-20T02:23:04.023Z,4.73
2022-08-20T02:25:33.354Z,5.23
2022-08-20T02:28:07.861Z,4.97
2022-08-20T02:30:39.197Z,4.50
2022-08-20T02:33:10.211Z,5.03
2022-08-20T02:35:38.455Z,6.23
2022-08-20T02:38:05.135Z,4.83
2022-08-20T02:40:32.049Z,5.97
2022-08-20T02:43:02.634Z,5.47
2022-08-20T02:45:37.097Z,4.20
2022-08-20T02:48:04.372Z,4.27
2022-08-20T02:50:31.549Z,6.23
2022-08-20T02:52:57.984Z,5.80
2022-08-20T02:55:27.630Z,5.33
2022-08-20T02:58:00.581Z,5.27
2022-08-20T03:00:38.183Z,4.90
2022-08-20T03:03:08.155Z,4.10
2022-08-20T03:05:35.267Z,4.60
2022-08-20T03:08:03.756Z,4.33
2022-08-20T03:10:33.958Z,3.90
2022-08-20T03:13:02.615Z,5.40
2022-08-20T03:15:31.956Z,6.50
2022-08-20T03:17:59.282Z,6.50
2022-08-20T03:20:26.926Z,6.73
2022-08-20T03:22:55.101Z,5.00
2022-08-20T03:25:21.979Z,7.83
2022-08-20T03:27:53.955Z,6.53
2022-08-20T03:30:25.045Z,6.07
2022-08-20T03:32:51.774Z,7.97
2022-08-20T03:35:25.190Z,5.47
2022-08-20T03:37:59.883Z,6.10
2022-08-20T03:40:30.531Z,5.40
2022-08-20T03:42:58.447Z,6.60
2022-08-20T03:45:27.754Z,6.17
2022-08-20T03:47:55.294Z,5.93
2022-08-20T03:50:26.856Z,8.50
2022-08-20T03:52:55.086Z,8.10
2022-08-20T03:55:23.253Z,7.53
2022-08-20T03:57:54.357Z,8.20
2022-08-20T04:00:29.295Z,9.30
2022-08-20T04:02:57.119Z,8.30
2022-08-20T04:05:25.464Z,9.60
2022-08-20T04:08:00.201Z,9.03
2022-08-20T04:10:30.759Z,9.20
2022-08-20T04:12:57.701Z,11.23
2022-08-20T04:15:25.048Z,10.77
2022-08-20T04:17:53.245Z,10.03
2022-08-20T04:20:26.158Z,9.17
2022-08-20T04:22:59.193Z,12.83
2022-08-20T04:25:52.032Z,9.27
2022-08-20T04:28:26.942Z,9.63
2022-08-20T04:30:55.327Z,9.13
2022-08-20T04:33:34.027Z,7.67
2022-08-20T04:36:05.813Z,10.27
2022-08-20T04:38:49.793Z,9.13
2022-08-20T04:41:22.979Z,8.10
2022-08-20T04:43:55.199Z,11.17
2022-08-20T04:46:25.799Z,10.43
2022-08-20T04:48:53.139Z,10.83
2022-08-20T04:51:22.951Z,11.20
2022-08-20T04:53:53.644Z,14.27
2022-08-20T04:56:28.647Z,11.83
2022-08-20T04:58:58.069Z,12.47
2022-08-20T05:01:26.325Z,13.53
2022-08-20T05:03:55.351Z,12.93
2022-08-20T05:06:25.723Z,12.47
2022-08-20T05:08:56.963Z,13.73
2022-08-20T05:11:33.946Z,12.17
2022-08-20T05:14:05.472Z,14.00
2022-08-20T05:16:37.501Z,11.80
2022-08-20T05:19:04.125Z,11.27
2022-08-20T05:21:30.751Z,13.40
2022-08-20T05:23:57.172Z,13.80
2022-08-20T05:26:26.995Z,12.73
2022-08-20T05:28:58.335Z,13.73
2022-08-20T05:31:31.797Z,14.57
2022-08-20T05:34:09.410Z,15.07
2022-08-20T05:36:42.848Z,14.20
2022-08-20T05:39:10.463Z,12.23
2022-08-20T05:41:38.382Z,14.37
2022-08-20T05:44:09.815Z,18.27
2022-08-20T05:46:40.976Z,18.53
2022-08-20T05:49:09.877Z,15.87
2022-08-20T05:51:37.435Z,17.13
2022-08-20T05:54:06.046Z,16.47
2022-08-20T05:56:33.886Z,14.67
2022-08-20T05:59:03.903Z,15.30
2022-08-20T06:01:31.628Z,14.47
2022-08-20T06:04:17.435Z,14.33
2022-08-20T06:06:45.611Z,14.07
2022-08-20T06:09:14.486Z,16.40
2022-08-20T06:11:41.470Z,15.90
2022-08-20T06:14:08.035Z,18.13
2022-08-20T06:16:34.674Z,15.90
2022-08-20T06:19:04.761Z,15.37
2022-08-20T06:21:31.395Z,15.97
2022-08-20T06:24:01.667Z,17.37
2022-08-20T06:26:29.920Z,13.93
2022-08-20T06:29:04.534Z,15.70
2022-08-20T06:31:31.126Z,14.50
2022-08-20T06:33:58.073Z,12.97
2022-08-20T06:36:25.335Z,15.13
2022-08-20T06:38:51.867Z,13.67
2022-08-20T06:41:18.797Z,15.47
2022-08-20T06:43:45.212Z,14.93
2022-08-20T06:46:12.865Z,14.53
2022-08-20T06:48:39.403Z,16.97
2022-08-20T06:51:06.743Z,13.80
2022-08-20T06:53:33.378Z,13.17
2022-08-20T06:56:00.622Z,11.90
2022-08-20T06:58:37.557Z,12.50
2022-08-20T07:01:11.394Z,13.33
2022-08-20T07:03:40.553Z,15.23
2022-08-20T07:06:25.941Z,15.13
2022-08-20T07:08:54.521Z,18.23
2022-08-20T07:11:27.414Z,17.47
2022-08-20T07:13:57.082Z,16.40
2022-08-20T07:16:25.482Z,15.50
2022-08-20T07:18:52.111Z,17.93
2022-08-20T07:21:18.609Z,17.80
2022-08-20T07:23:45.324Z,16.23
2022-08-20T07:26:12.894Z,17.90
2022-08-20T07:28:39.369Z,18.67
2022-08-20T07:31:24.696Z,19.70
2022-08-20T07:33:51.281Z,16.20
2022-08-20T07:36:20.283Z,18.67
2022-08-20T07:38:50.777Z,18.70
2022-08-20T07:41:17.415Z,15.43
2022-08-20T07:43:47.737Z,23.50
2022-08-20T07:46:24.693Z,21.30
2022-08-20T07:48:58.702Z,18.90
2022-08-20T07:51:25.583Z,18.47
2022-08-20T07:53:53.563Z,18.47
2022-08-20T07:56:28.312Z,21.03
2022-08-20T07:59:02.097Z,20.63
2022-08-20T08:01:31.776Z,21.83
2022-08-20T08:04:04.020Z,20.30
2022-08-20T08:06:31.820Z,20.43
2022-08-20T08:09:10.884Z,19.17
2022-08-20T08:11:46.399Z,17.23
2022-08-20T08:14:16.209Z,17.53
2022-08-20T08:16:45.567Z,15.17
2022-08-20T08:19:16.307Z,14.53
2022-08-20T08:21:44.223Z,20.07
2022-08-20T08:24:13.489Z,18.33
2022-08-20T08:26:42.399Z,15.47
2022-08-20T08:29:08.821Z,16.73
2022-08-20T08:31:35.436Z,16.83
2022-08-20T08:34:02.023Z,16.10
2022-08-20T08:36:28.570Z,12.93
2022-08-20T08:38:56.514Z,13.90
2022-08-20T08:41:47.990Z,16.10
2022-08-20T08:44:24.539Z,16.40
2022-08-20T08:47:01.054Z,16.67
2022-08-20T08:49:38.136Z,15.93
2022-08-20T08:52:12.154Z,18.13
2022-08-20T08:54:46.538Z,14.50
2022-08-20T08:57:13.162Z,15.90
2022-08-20T08:59:52.118Z,19.00
2022-08-20T09:02:30.774Z,19.57
2022-08-20T09:05:00.797Z,19.00
2022-08-20T09:07:31.489Z,24.60
2022-08-20T09:09:58.919Z,23.70
2022-08-20T09:12:29.752Z,19.47
2022-08-20T09:14:57.362Z,22.57
2022-08-20T09:17:25.448Z,21.27
2022-08-20T09:19:52.344Z,20.40
2022-08-20T09:22:22.200Z,20.93
2022-08-20T09:24:49.996Z,21.77
2022-08-20T09:27:17.386Z,21.70
2022-08-20T09:29:43.957Z,21.13
2022-08-20T09:32:14.832Z,20.90
2022-08-20T09:34:44.734Z,20.50
2022-08-20T09:37:12.258Z,22.70
2022-08-20T09:39:39.455Z,21.17
2022-08-20T09:42:20.280Z,23.17
2022-08-20T09:44:47.345Z,19.97
2022-08-20T09:47:14.614Z,23.80
2022-08-20T09:49:41.813Z,24.23
2022-08-20T09:52:10.416Z,25.50
2022-08-20T09:54:39.884Z,23.47
2022-08-20T09:57:17.497Z,21.47
2022-08-20T09:59:57.162Z,21.63
2022-08-20T10:02:25.646Z,15.70
2022-08-20T10:04:52.185Z,13.23
2022-08-20T10:07:20.044Z,10.13
2022-08-20T10:09:46.538Z,10.53
2022-08-20T10:12:13.407Z,12.43
2022-08-20T10:14:41.682Z,12.77
2022-08-20T10:17:08.313Z,12.43
2022-08-20T10:19:34.851Z,10.67
2022-08-20T10:22:01.833Z,8.93
2022-08-20T10:24:29.782Z,8.90
2022-08-20T10:26:58.773Z,10.20
2022-08-20T10:29:27.258Z,8.17
2022-08-20T10:32:07.406Z,7.90
2022-08-20T10:34:33.885Z,7.10
2022-08-20T10:37:00.924Z,7.47
2022-08-20T10:39:27.652Z,7.43
2022-08-20T10:41:58.510Z,7.17
2022-08-20T10:44:25.984Z,5.57
2022-08-20T10:46:53.600Z,5.40
2022-08-20T10:49:24.856Z,5.47
2022-08-20T10:51:51.379Z,6.87
2022-08-20T10:54:18.547Z,6.57
2022-08-20T10:56:45.069Z,6.47
2022-08-20T10:59:11.511Z,8.17
2022-08-20T11:01:38.213Z,8.13
2022-08-20T11:04:05.099Z,7.50
2022-08-20T11:06:31.566Z,6.23
2022-08-20T11:08:58.461Z,5.83
2022-08-20T11:11:25.606Z,6.50
2022-08-20T11:13:52.195Z,5.87
2022-08-20T11:16:18.810Z,6.53
2022-08-20T11:18:47.627Z,6.27
2022-08-20T11:21:14.588Z,6.53
2022-08-20T11:23:41.527Z,6.97
2022-08-20T11:26:08.628Z,6.13
2022-08-20T11:28:35.228Z,6.07
2022-08-20T11:31:01.924Z,6.17
2022-08-20T11:33:28.640Z,5.93
2022-08-20T11:35:55.858Z,6.20
2022-08-20T11:38:22.358Z,6.27
2022-08-20T11:40:48.894Z,4.77
2022-08-20T11:43:17.424Z,6.13
2022-08-20T11:45:47.561Z,5.13
2022-08-20T11:48:21.814Z,5.88
2022-08-20T11:50:50.201Z,5.97
2022-08-20T11:53:17.646Z,5.30
2022-08-20T11:55:44.619Z,5.10
2022-08-20T11:58:11.497Z,6.32
2022-08-20T12:00:38.278Z,6.45
2022-08-20T12:03:09.456Z,6.30
2022-08-20T12:05:41.526Z,5.35
2022-08-20T12:08:09.159Z,3.72
2022-08-20T12:10:36.710Z,4.50
2022-08-20T12:13:04.578Z,5.35
2022-08-20T12:15:32.885Z,5.82
2022-08-20T12:17:59.779Z,4.20
2022-08-20T12:20:26.714Z,3.63
2022-08-20T12:22:54.616Z,5.20
2022-08-20T12:25:21.391Z,4.47
2022-08-20T12:27:47.908Z,5.07
2022-08-20T12:30:17.760Z,4.97
2022-08-20T12:32:44.763Z,7.73
2022-08-20T12:35:12.482Z,5.70
2022-08-20T12:37:39.445Z,5.17
2022-08-20T12:40:10.739Z,5.32
2022-08-20T12:42:37.802Z,5.97
2022-08-20T12:45:05.829Z,6.03
2022-08-20T12:47:35.218Z,5.77
2022-08-20T12:50:06.570Z,5.77
2022-08-20T12:52:33.702Z,4.90
2022-08-20T12:55:01.160Z,5.53
2022-08-20T12:57:28.987Z,3.97
2022-08-20T12:59:58.997Z,4.33
2022-08-20T13:02:26.094Z,5.37
2022-08-20T13:04:52.691Z,4.82
2022-08-20T13:07:19.325Z,5.73
2022-08-20T13:09:45.855Z,5.18
2022-08-20T13:12:14.435Z,6.55
2022-08-20T13:14:41.815Z,4.47
2022-08-20T13:17:08.947Z,4.93
2022-08-20T13:19:37.472Z,3.55
2022-08-20T13:22:05.501Z,3.22
2022-08-20T13:24:32.229Z,4.53
2022-08-20T13:27:11.093Z,3.60
2022-08-20T13:29:38.367Z,4.70
2022-08-20T13:32:05.563Z,3.88
2022-08-20T13:34:32.124Z,4.53
2022-08-20T13:36:58.783Z,4.35
2022-08-20T13:39:25.831Z,4.80
2022-08-20T13:41:52.286Z,5.05
2022-08-20T13:44:32.980Z,4.60
2022-08-20T13:49:57.557Z,4.22
2022-08-20T13:52:24.974Z,5.68
2022-08-20T13:54:52.667Z,3.88
2022-08-20T13:57:20.979Z,4.63
2022-08-20T13:59:50.639Z,4.72
2022-08-20T14:02:17.558Z,5.22
2022-08-20T14:04:45.231Z,5.25
2022-08-20T14:07:28.852Z,3.53
2022-08-20T14:10:01.097Z,4.82
2022-08-20T14:12:30.519Z,4.22
2022-08-20T14:14:57.794Z,3.58
2022-08-20T14:17:27.770Z,3.10
2022-08-20T14:20:01.964Z,4.45
2022-08-20T14:22:29.719Z,4.72
2022-08-20T14:24:57.482Z,3.80
2022-08-20T14:27:29.222Z,4.10
2022-08-20T14:29:58.853Z,4.35
2022-08-20T14:32:25.884Z,4.57
2022-08-20T14:34:53.806Z,4.13
2022-08-20T14:37:31.174Z,4.68
2022-08-20T14:40:08.143Z,3.33
2022-08-20T14:42:35.436Z,4.00
2022-08-20T14:45:04.356Z,3.17
2022-08-20T14:47:35.156Z,5.38
2022-08-20T14:50:08.742Z,3.72
2022-08-20T14:52:36.676Z,4.53
2022-08-20T14:55:05.182Z,4.18
2022-08-20T14:57:32.401Z,3.47
2022-08-20T14:59:58.968Z,4.18
2022-08-20T15:02:25.950Z,3.97
2022-08-20T15:04:54.405Z,4.95
2022-08-20T15:07:32.171Z,5.20
2022-08-20T15:10:01.108Z,4.90
2022-08-20T15:12:28.591Z,2.92
2022-08-20T15:14:59.704Z,4.32
2022-08-20T15:17:38.130Z,5.15
2022-08-20T15:20:10.688Z,4.05
2022-08-20T15:22:48.731Z,4.50
2022-08-20T15:25:18.773Z,6.35
2022-08-20T15:27:47.016Z,3.17
2022-08-20T15:30:21.041Z,4.95
2022-08-20T15:32:51.401Z,5.53
2022-08-20T15:35:21.508Z,4.88
2022-08-20T15:37:50.250Z,3.63
2022-08-20T15:40:27.838Z,4.78
2022-08-20T15:42:55.995Z,3.60
2022-08-20T15:45:22.465Z,5.95
2022-08-20T15:47:54.060Z,5.70
2022-08-20T15:50:48.318Z,3.63
2022-08-20T15:53:25.114Z,4.75
2022-08-20T15:55:59.430Z,3.63
2022-08-20T15:59:03.938Z,4.10
2022-08-20T16:01:48.964Z,3.65
2022-08-20T16:04:25.974Z,4.88
2022-08-20T16:07:00.239Z,6.03
2022-08-20T16:09:46.800Z,7.75
2022-08-20T16:12:31.554Z,5.30
2022-08-20T16:15:08.724Z,4.05
2022-08-20T16:17:47.831Z,4.25
2022-08-20T16:20:18.690Z,3.85
2022-08-20T16:22:46.799Z,3.92
2022-08-20T16:25:16.615Z,7.32
2022-08-20T16:27:57.891Z,4.97
2022-08-20T16:30:37.450Z,4.80
2022-08-20T16:33:14.641Z,3.97
2022-08-20T16:35:51.034Z,4.80
2022-08-20T16:38:24.855Z,4.25
2022-08-20T16:40:57.115Z,4.05
2022-08-20T16:43:56.272Z,4.78
2022-08-20T16:46:34.982Z,4.90
2022-08-20T16:49:11.249Z,3.95
2022-08-20T16:51:41.369Z,6.78
2022-08-20T16:54:10.283Z,7.97
2022-08-20T16:56:42.631Z,5.70
2022-08-20T16:59:12.634Z,8.10
2022-08-20T17:02:08.294Z,5.73
2022-08-20T17:04:58.535Z,4.27
2022-08-20T17:07:51.212Z,5.07
2022-08-20T17:10:27.855Z,5.03
2022-08-20T17:12:59.319Z,4.63
2022-08-20T17:15:33.505Z,5.13
2022-08-20T17:18:28.769Z,6.43
2022-08-20T17:21:11.808Z,5.10
2022-08-20T17:23:55.527Z,6.23
2022-08-20T17:26:36.003Z,4.80
2022-08-20T17:29:21.182Z,4.90
2022-08-20T17:31:51.840Z,6.13
2022-08-20T17:34:23.200Z,5.53
2022-08-20T17:37:10.364Z,6.57
2022-08-20T17:39:46.593Z,7.10
2022-08-20T17:42:26.209Z,5.63
2022-08-20T17:45:21.801Z,7.37
2022-08-20T17:47:48.686Z,4.07
2022-08-20T17:50:20.116Z,6.10
2022-08-20T17:52:50.853Z,5.73
2022-08-20T17:55:19.316Z,5.37
2022-08-20T17:57:49.598Z,5.00
2022-08-20T18:00:32.939Z,4.70
2022-08-20T18:03:13.145Z,6.13
2022-08-20T18:05:39.735Z,7.50
2022-08-20T18:08:16.531Z,7.40
2022-08-20T18:10:56.781Z,4.77
2022-08-20T18:13:38.201Z,5.07
2022-08-20T18:16:25.512Z,6.47
2022-08-20T18:19:16.295Z,4.33
2022-08-20T18:22:01.457Z,4.33
2022-08-20T18:24:37.015Z,4.83
2022-08-20T18:27:09.035Z,6.47
2022-08-20T18:29:41.032Z,4.30
2022-08-20T18:32:24.092Z,6.40
2022-08-20T18:34:52.583Z,4.93
2022-08-20T18:37:19.002Z,6.33
2022-08-20T18:39:48.678Z,5.13
2022-08-20T18:42:27.604Z,4.17
2022-08-20T18:44:58.639Z,5.90
2022-08-20T18:47:34.279Z,5.50
2022-08-20T18:50:15.901Z,5.63
2022-08-20T18:52:50.259Z,4.97
2022-08-20T18:55:41.809Z,5.73
2022-08-20T18:58:12.810Z,7.50
2022-08-20T19:00:47.670Z,4.57
2022-08-20T19:03:30.344Z,4.90
2022-08-20T19:06:05.703Z,4.90
2022-08-20T19:09:09.779Z,7.13
2022-08-20T19:11:48.141Z,4.70
2022-08-20T19:14:54.430Z,5.80
2022-08-20T19:17:40.407Z,7.73
2022-08-20T19:20:18.025Z,5.07
2022-08-20T19:22:47.924Z,7.43
2022-08-20T19:25:51.203Z,4.83
2022-08-20T19:28:25.404Z,4.07
2022-08-20T19:30:52.198Z,7.33
2022-08-20T19:33:31.952Z,5.77
2022-08-20T19:36:22.189Z,4.77
2022-08-20T19:38:59.109Z,4.43
2022-08-20T19:41:35.179Z,7.90
2022-08-20T19:44:02.863Z,5.53
2022-08-20T19:46:36.169Z,4.53
2022-08-20T19:49:19.351Z,4.13
2022-08-20T19:52:10.361Z,4.37
2022-08-20T19:54:46.717Z,4.27
2022-08-20T19:57:14.209Z,7.97
2022-08-20T19:59:52.133Z,5.40
2022-08-20T20:02:24.391Z,3.57
2022-08-20T20:04:55.581Z,6.00
2022-08-20T20:07:41.041Z,5.30
2022-08-20T20:10:11.714Z,4.53
2022-08-20T20:12:39.234Z,6.03
2022-08-20T20:15:07.305Z,4.90
2022-08-20T20:17:36.462Z,6.00
2022-08-20T20:20:32.434Z,3.63
2022-08-20T20:23:06.548Z,5.30
2022-08-20T20:25:34.079Z,5.67
2022-08-20T20:28:24.411Z,3.93
2022-08-20T20:30:50.994Z,6.80
2022-08-20T20:33:37.592Z,6.80
2022-08-20T20:36:18.009Z,5.87
2022-08-20T20:39:00.447Z,4.60
2022-08-20T20:41:29.789Z,3.57
2022-08-20T20:44:17.705Z,6.93
2022-08-20T20:46:47.279Z,5.70
2022-08-20T20:50:01.333Z,4.40
2022-08-20T20:52:37.442Z,4.10
2022-08-20T20:55:15.169Z,3.60
2022-08-20T20:57:42.090Z,7.40
2022-08-20T21:00:13.050Z,5.33
2022-08-20T21:02:40.640Z,4.30
2022-08-20T21:05:07.502Z,7.93
2022-08-20T21:07:34.151Z,4.13
2022-08-20T21:10:00.576Z,3.80
2022-08-20T21:12:32.551Z,3.40
2022-08-20T21:14:59.231Z,7.67
2022-08-20T21:17:27.157Z,7.93
2022-08-20T21:19:54.462Z,6.00
2022-08-20T21:22:21.732Z,3.60
2022-08-20T21:24:51.258Z,5.93
2022-08-20T21:27:24.395Z,4.07
2022-08-20T21:29:52.518Z,6.40
2022-08-20T21:32:19.014Z,4.57
2022-08-20T21:34:46.211Z,7.30
2022-08-20T21:37:12.680Z,5.00
2022-08-20T21:39:39.656Z,9.53
2022-08-20T21:42:18.512Z,4.23
2022-08-20T21:45:20.451Z,5.30
2022-08-20T21:47:48.795Z,4.13
2022-08-20T21:50:20.438Z,6.10
2022-08-20T21:52:55.364Z,3.87
2022-08-20T21:55:39.437Z,6.47
2022-08-20T21:58:07.082Z,6.93
2022-08-20T22:00:54.650Z,6.90
2022-08-20T22:03:25.569Z,6.07
2022-08-20T22:05:52.495Z,3.43
2022-08-20T22:08:20.179Z,5.47
2022-08-20T22:10:47.046Z,5.80
2022-08-20T22:13:23.043Z,6.63
2022-08-20T22:15:49.632Z,5.10
2022-08-20T22:18:17.714Z,6.73
2022-08-20T22:20:44.478Z,7.60
2022-08-20T22:23:11.806Z,4.93
2022-08-20T22:25:38.318Z,6.90
2022-08-20T22:28:04.909Z,5.13
2022-08-20T22:30:31.966Z,4.87
2022-08-20T22:33:05.231Z,5.00
2022-08-20T22:35:32.290Z,4.73
2022-08-20T22:37:59.481Z,5.70
2022-08-20T22:40:29.712Z,6.73
2022-08-20T22:42:56.783Z,5.73
2022-08-20T22:45:24.654Z,5.40
2022-08-20T22:47:51.816Z,5.07
2022-08-20T22:50:22.647Z,8.43
2022-08-20T22:52:49.208Z,5.97
2022-08-20T22:55:16.847Z,5.23
2022-08-20T22:57:46.741Z,5.80
2022-08-20T23:00:19.837Z,7.27
2022-08-20T23:02:52.829Z,7.03
2022-08-20T23:05:22.945Z,5.30
2022-08-20T23:07:53.466Z,4.23
2022-08-20T23:10:21.886Z,5.23
2022-08-20T23:12:48.361Z,8.17
2022-08-20T23:15:16.646Z,4.90
2022-08-20T23:17:43.524Z,5.47
2022-08-20T23:20:13.123Z,6.13
2022-08-20T23:22:39.586Z,6.57
2022-08-20T23:25:08.015Z,5.40
2022-08-20T23:27:41.334Z,6.20
2022-08-20T23:30:08.260Z,6.10
2022-08-20T23:32:34.842Z,7.70
2022-08-20T23:35:01.932Z,5.47
2022-08-20T23:37:28.511Z,4.93
2022-08-20T23:39:56.562Z,5.83
2022-08-20T23:42:23.114Z,6.00
2022-08-20T23:44:49.605Z,6.70
2022-08-20T23:47:20.150Z,4.37
2022-08-20T23:49:47.039Z,8.27
2022-08-20T23:52:13.553Z,4.63
2022-08-20T23:54:40.894Z,5.40
2022-08-20T23:57:08.105Z,4.77
2022-08-20T23:59:35.736Z,7.13
